Aviation Digital Data Service (ADDS)

Output produced by METARs form (1025 UTC 15 July 2020)
found at http://www.aviationweather.gov/metar/data/
 
Forecast for: LYBE (BELGRADE/SURCIN , CS)
Text: TAF LYBE 150500Z 1506/1606 23004KT CAVOK TX28/1513Z TN17/1603Z
Forecast period: 0600 UTC 15 July 2020 to 0600 UTC 16 July 2020
Forecast type: FROM: standard forecast or significant change
Winds: from the SW (230 degrees) at 5 MPH (4 knots; 2.1 m/s)
Visibility: 6 or more miles 10+ km)
Ceiling: unknown
Clouds: missing
Weather: no significant weather forecast for this period
Text: PROB30
Forecast period: 2300 UTC 15 July 2020 to 0300 UTC 16 July 2020
Forecast type: TEMPORARY: The following changes expected for less than half the time period
Visibility: 3 miles (5 km)
Ceiling: at least 12,000 feet AGL
Clouds: scattered clouds at 3000 feet AGL
scattered clouds at 3300 feet AGL
Weather: SHRA  (rain showers)